Enroute Instrument Rating: EIR(A)

Flugschule

Flugschule

Wir bieten eine professionelle und umfassende Ausbildung.

Flugwetter Augsburg

[Quelle: ADDS]
METAR
EDMA 201820Z 06003KT CAVOK 08/04 Q1015 =
EDMA 201700Z 2018/2103 VRB02KT CAVOK BECMG 2023/2101 3000 BR TEMPO 2101/2103 1200 BR
TAF
EDMA 201700Z 2018/2103 VRB02KT CAVOK BECMG 2023/2101 3000 BR TEMPO 2101/2103 1200 BR =

Kontakt

Basic Instrument Rating - BIR (A)

- Text folgt -